Flight Track Log - Related Links

Times and Time Zones

All times are in EDT time to prevent confusion due to time zone crossing. See the N208ML flight status page for this flight to view local times or setup timezone preferences in your user account.

Time Position Orientation Groundspeed Altitude Reporting Facility
EDT Latitude Longitude Course Direction KTS MPH feet Rate Location/Type
Fri 02:27:15 PM 42.2411 -85.4503 107° East 140 161 3,500  Level Chicago Center
Fri 02:28:17 PM 42.2286 -85.4025 109° East 138 159 4,600 726 Climbing Chicago Center
Fri 02:29:19 PM 42.2189 -85.3514 104° East 139 160 5,000 194 Climbing Chicago Center
Fri 02:30:21 PM 42.2042 -85.2933 109° East 155 178 5,000  Level Chicago Center
Fri 02:31:00 PM 42.1517 -85.1847 107° East  Level FlightAware Approximate
Fri 02:31:24 PM 42.1850 -85.2206 110° East 168 193 5,000  Level Chicago Center
Fri 02:32:00 PM 42.1376 -85.1239 107° East  Level FlightAware Approximate
Fri 02:32:26 PM 42.1686 -85.1583 110° East 173 199 5,000  Level Chicago Center
Fri 02:33:28 PM 42.1525 -85.0961 109° East 175 201 5,000  Level Chicago Center
Fri 02:34:30 PM 42.1350 -85.0333 111° Southeast 177 204 5,000  Level Chicago Center
Fri 02:35:32 PM 42.1186 -84.9706 109° East 178 205 5,000  Level Chicago Center
Fri 02:36:34 PM 42.1019 -84.9086 110° East 176 203 5,000  Level Chicago Center
Fri 02:37:36 PM 42.0822 -84.8356 110° East 174 200 5,000  Level Chicago Center
Fri 02:38:38 PM 42.0658 -84.7725 109° East 176 203 5,000  Level Chicago Center
Fri 02:39:40 PM 42.0536 -84.7081 104° East 177 204 5,000  Level Chicago Center
Fri 02:40:43 PM 42.0458 -84.6450 99° East 176 203 5,000  Level Chicago Center
Fri 02:41:46 PM 42.0369 -84.5811 101° East 175 201 5,000  Level Chicago Center
Fri 02:42:47 PM 42.0275 -84.5156 101° East 176 203 5,000  Level Chicago Center
Fri 02:43:49 PM 42.0156 -84.4386 102° East 176 203 5,000  Level Chicago Center
Fri 02:44:51 PM 42.0067 -84.3753 101° East 175 201 5,000  Level Chicago Center
Fri 02:45:21 PM 42.0006 -84.3444 105° East 171 197 5,000  Level Cleveland Center
Fri 02:46:55 PM 41.9878 -84.2489 100° East 173 199 5,000  Level Chicago Center
Fri 02:47:48 PM 41.9764 -84.1836 103° East 176 203 5,000  Level Cleveland Center
Fri 02:48:49 PM 41.9719 -84.1219 96° East 172 198 5,000 -94 Level Cleveland Center
Fri 02:49:56 PM 41.9969 -84.0592 62° Northeast 173 199 4,800 -344 Descending Cleveland Center
Fri 02:50:51 PM 42.0131 -84.0042 68° East 176 203 4,300 -541 Descending Cleveland Center
Fri 02:51:58 PM 42.0297 -83.9350 72° East 166 191 3,700 -609 Descending Cleveland Center
Fri 02:52:59 PM 42.0461 -83.8800 68° East 151 174 3,000 -362 Descending Cleveland Center
Fri 02:53:54 PM 42.0597 -83.8386 66° East 135 155 3,000  Level Cleveland Center
Fri 02:55:01 PM 42.0736 -83.7836 71° East 138 159 3,000 47 Level Cleveland Center
Fri 02:56:02 PM 42.0958 -83.7342 59° Northeast 150 173 3,100  Climbing Cleveland Center
Fri 02:57:03 PM 42.1219 -83.6992 45° Northeast 144 166 3,000 -49 Descending Cleveland Center
Fri 02:58:04 PM 42.1500 -83.6642 43° Northeast 126 145 3,000 -155 Level Cleveland Center
Fri 02:58:59 PM 42.1697 -83.6314 51° Northeast 117 135 2,700 -517 Descending Cleveland Center
Fri 03:00:00 PM 42.1914 -83.6017 45° Northeast 113 130 2,000 -656 Descending Cleveland Center
Fri 03:01:07 PM 42.2172 -83.5664 45° Northeast 109 125 1,300 -627 Descending Cleveland Center
Fri 03:03:00 PM 42.2333 -83.5167 66° East  Level FlightAware Approximate

Login

Don't have an account? Register now (free) for customized features, flight alerts, and more!